Dixie, Kentucky
Current Conditions -  °F | °C
As of 8:34 AM on Wednesday 22 Oct 2014 (Local Time) from KI69 Reporting Station
Overcast Overcast  
Wind Chill: 41°   Ceiling: 1400
Heat Index: 45°   Visibility: 10mi
Dew Point: 41°   Wind: 7mph
Humidity: 87%   Direction: 10°N
Pressure: 30.26"   Gusts: NA
Location:  39.0279°N, 84.5635°W
Report Text: KI69 221234Z AUTO 01006KT 10SM OVC014 07/05 A3026 RMK AO1
Loading
Personal Weather Stations






























Interactive Weather Map
Tropical Storm Tracking
New forecast layout! Learn more

10-Day Weather Forecast

Advertisements
Track Severe Weather on mobile